Time;durP1;ratioP1;P1;durP2;ratioP2;P2;SDS_P1;SDS_P2;PMS_P1;PMS_P2;Temp;Humidity;BMP_temperature;BMP_pressure;BME280_temperature;BME280_humidity;BME280_pressure;Samples;Min_cycle;Max_cycle;Signal;HPM_P1;HPM_P2
2021/12/21 00:00:00;;;;;;;14.43;8.00;;;;;;;-2.45;100.00;101818.66;6061549;29;20499;-89
2021/12/21 00:03:03;;;;;;;16.05;7.13;;;;;;;-2.53;100.00;101820.41;6074962;29;20040;-89
2021/12/21 00:06:05;;;;;;;9.85;6.93;;;;;;;-2.53;100.00;101816.16;6044192;29;20041;-89
2021/12/21 00:09:07;;;;;;;13.25;7.40;;;;;;;-2.54;100.00;101818.69;6054883;29;20057;-89
2021/12/21 00:12:12;;;;;;;13.93;7.45;;;;;;;-2.56;100.00;101811.09;6050904;29;20600;-89
2021/12/21 00:15:25;;;;;;;15.32;8.07;;;;;;;-2.60;100.00;101812.81;6056456;29;20060;-89
2021/12/21 00:18:35;;;;;;;17.58;8.07;;;;;;;-2.62;100.00;101819.56;6024281;29;20511;-89
2021/12/21 00:21:41;;;;;;;14.63;7.97;;;;;;;-2.61;100.00;101813.66;6051546;29;20045;-89
2021/12/21 00:24:47;;;;;;;12.27;8.15;;;;;;;-2.62;100.00;101811.97;6063152;29;20040;-89
2021/12/21 00:27:52;;;;;;;11.48;7.30;;;;;;;-2.66;100.00;101807.78;6050347;29;20648;-89
2021/12/21 00:30:54;;;;;;;11.80;8.18;;;;;;;-2.67;100.00;101812.84;6050098;29;20049;-89
2021/12/21 00:33:56;;;;;;;11.85;7.53;;;;;;;-2.71;100.00;101808.63;6060844;29;20044;-89
2021/12/21 00:36:58;;;;;;;13.82;7.95;;;;;;;-2.69;100.00;101804.41;6052987;29;20059;-89
2021/12/21 00:40:00;;;;;;;15.45;8.20;;;;;;;-2.65;100.00;101809.44;6047234;29;20045;-89
2021/12/21 00:43:02;;;;;;;10.50;7.20;;;;;;;-2.64;100.00;101808.59;6050385;29;20395;-89
2021/12/21 00:46:05;;;;;;;10.98;7.35;;;;;;;-2.72;100.00;101806.94;6050903;29;20519;-89
2021/12/21 00:49:21;;;;;;;17.73;7.47;;;;;;;-2.72;100.00;101800.19;6038554;29;20132;-89
2021/12/21 00:52:24;;;;;;;10.70;7.53;;;;;;;-2.72;100.00;101800.19;6072146;29;20048;-89
2021/12/21 00:55:26;;;;;;;14.40;7.85;;;;;;;-2.74;100.00;101812.00;6043344;29;20508;-89
2021/12/21 00:58:29;;;;;;;12.68;8.13;;;;;;;-2.82;100.00;101809.50;6070787;29;20460;-89
2021/12/21 01:01:32;;;;;;;12.95;7.78;;;;;;;-2.72;100.00;101814.53;6033603;29;20049;-89
2021/12/21 01:04:39;;;;;;;16.60;7.68;;;;;;;-2.80;100.00;101801.91;6020943;29;20052;-89
2021/12/21 01:07:45;;;;;;;16.67;7.57;;;;;;;-2.85;100.00;101812.03;6053935;29;20051;-89
2021/12/21 01:11:00;;;;;;;12.48;7.47;;;;;;;-2.83;100.00;101807.00;6050591;29;20067;-89
2021/12/21 01:17:32;;;;;;;11.52;7.50;;;;;;;-2.72;100.00;101799.34;6069911;29;20049;-89
2021/12/21 01:20:40;;;;;;;12.23;7.10;;;;;;;-2.72;100.00;101799.34;6051302;29;20067;-89
2021/12/21 01:30:11;;;;;;;13.57;8.55;;;;;;;-2.71;100.00;101791.72;6062935;29;20427;-89
2021/12/21 01:49:43;;;;;;;15.63;8.63;;;;;;;-2.77;100.00;101778.25;6054213;29;20057;-89
2021/12/21 01:52:45;;;;;;;9.85;7.20;;;;;;;-2.84;100.00;101778.25;6068167;29;20081;-89
2021/12/21 01:55:47;;;;;;;14.30;8.55;;;;;;;-2.84;100.00;101775.72;6077451;29;20783;-89
2021/12/21 01:58:50;;;;;;;12.45;7.65;;;;;;;-2.77;100.00;101774.00;6046547;29;20427;-89
2021/12/21 02:01:52;;;;;;;12.45;7.32;;;;;;;-2.73;100.00;101777.38;6051121;29;20668;-89
2021/12/21 02:04:54;;;;;;;14.15;8.10;;;;;;;-2.73;100.00;101773.16;6076663;29;20542;-89
2021/12/21 02:07:56;;;;;;;12.40;7.20;;;;;;;-2.78;100.00;101774.88;6061617;29;20075;-89
2021/12/21 02:11:03;;;;;;;15.55;7.43;;;;;;;-2.83;100.00;101768.97;6057083;29;20060;-89
2021/12/21 02:14:09;;;;;;;15.10;8.05;;;;;;;-2.85;100.00;101766.44;6053950;29;20052;-89
2021/12/21 02:23:39;;;;;;;15.82;8.02;;;;;;;-2.91;100.00;101763.91;6062315;29;20065;-89
2021/12/21 02:27:18;;;;;;;14.20;8.30;;;;;;;-2.91;100.00;101768.97;6057224;29;20041;-89
2021/12/21 02:30:20;;;;;;;14.02;7.22;;;;;;;-2.96;100.00;101767.31;6057341;29;20044;-89
2021/12/21 02:33:25;;;;;;;12.98;7.35;;;;;;;-3.01;100.00;101758.88;6059555;29;20056;-89
2021/12/21 02:36:27;;;;;;;13.52;7.13;;;;;;;-3.01;100.00;101759.72;6068751;29;20458;-89
2021/12/21 02:39:29;;;;;;;14.15;7.05;;;;;;;-3.00;100.00;101747.94;6065315;29;20049;-89
2021/12/21 02:42:31;;;;;;;12.73;6.97;;;;;;;-3.01;100.00;101753.81;6050487;29;20047;-89
2021/12/21 02:45:33;;;;;;;13.85;7.00;;;;;;;-3.00;100.00;101753.00;6058696;29;20045;-89
2021/12/21 02:48:35;;;;;;;12.60;6.32;;;;;;;-3.07;100.00;101753.00;6064336;29;20127;-89
2021/12/21 02:51:40;;;;;;;13.23;7.43;;;;;;;-3.08;100.00;101750.47;6057696;29;20652;-89
2021/12/21 02:54:42;;;;;;;12.85;7.57;;;;;;;-3.13;100.00;101744.56;6071524;29;20463;-88
2021/12/21 02:57:44;;;;;;;13.07;7.68;;;;;;;-3.13;100.00;101747.09;6051129;29;20492;-89
2021/12/21 03:00:47;;;;;;;15.70;7.85;;;;;;;-3.07;100.00;101757.22;6053051;29;20041;-89
2021/12/21 03:03:51;;;;;;;12.43;7.30;;;;;;;-3.05;100.00;101747.94;6037042;29;20076;-88
2021/12/21 03:10:02;;;;;;;12.43;8.02;;;;;;;-3.11;100.00;101755.53;6053171;29;20057;-89
2021/12/21 03:16:24;;;;;;;14.27;7.85;;;;;;;-3.17;100.00;101756.41;6048437;29;20095;-89
2021/12/21 03:19:26;;;;;;;13.88;8.52;;;;;;;-3.14;100.00;101758.09;6052951;29;20057;-89
2021/12/21 03:22:28;;;;;;;15.15;9.13;;;;;;;-3.11;100.00;101753.84;6066194;29;20057;-89
2021/12/21 03:25:30;;;;;;;17.17;9.18;;;;;;;-3.04;100.00;101752.97;6059327;29;20044;-89
2021/12/21 03:28:33;;;;;;;15.32;8.63;;;;;;;-3.05;100.00;101750.47;6039912;29;20519;-89
2021/12/21 03:31:35;;;;;;;15.60;9.45;;;;;;;-3.00;100.00;101758.91;6072742;29;20049;-89
2021/12/21 03:34:37;;;;;;;15.68;8.82;;;;;;;-3.04;100.00;101745.38;6056576;29;20053;-89
2021/12/21 03:37:39;;;;;;;16.15;8.70;;;;;;;-3.05;100.00;101740.34;6065892;29;20287;-88
2021/12/21 03:40:42;;;;;;;12.65;8.55;;;;;;;-3.12;100.00;101734.44;6052903;29;20043;-89
2021/12/21 03:43:46;;;;;;;13.48;7.53;;;;;;;-3.14;100.00;101737.81;6052798;29;20045;-89
2021/12/21 03:46:52;;;;;;;14.95;8.02;;;;;;;-3.20;100.00;101745.44;6051762;29;20045;-88
2021/12/21 03:49:58;;;;;;;11.38;7.57;;;;;;;-3.29;100.00;101734.47;6039914;29;20064;-89
2021/12/21 03:53:00;;;;;;;15.63;8.25;;;;;;;-3.31;100.00;101733.63;6068437;29;20519;-89
2021/12/21 03:56:24;;;;;;;13.73;7.57;;;;;;;-3.30;100.00;101740.41;6062579;29;20480;-89
2021/12/21 03:59:25;;;;;;;18.08;8.52;;;;;;;-3.32;100.00;101731.13;6075711;29;20052;-89
2021/12/21 04:02:28;;;;;;;15.57;8.60;;;;;;;-3.41;100.00;101728.59;6063972;29;20053;-89
2021/12/21 04:05:37;;;;;;;14.68;8.43;;;;;;;-3.47;100.00;101732.81;6062359;29;20131;-89
2021/12/21 04:08:39;;;;;;;20.00;8.27;;;;;;;-3.44;100.00;101731.16;6059696;29;20701;-89
2021/12/21 04:11:42;;;;;;;19.08;8.13;;;;;;;-3.43;100.00;101732.81;6052949;29;20076;-89
2021/12/21 04:14:45;;;;;;;14.93;8.52;;;;;;;-3.48;100.00;101726.09;6056268;29;20407;-89
2021/12/21 04:17:47;;;;;;;19.17;8.50;;;;;;;-3.49;100.00;101731.97;6055329;29;20488;-89
2021/12/21 04:20:50;;;;;;;12.98;8.35;;;;;;;-3.48;100.00;101738.75;6056123;29;20048;-89
2021/12/21 04:23:52;;;;;;;13.02;8.50;;;;;;;-3.51;100.00;101742.94;6065746;29;20124;-89
2021/12/21 04:26:54;;;;;;;13.45;8.18;;;;;;;-3.49;100.00;101738.75;6063787;29;20051;-89
2021/12/21 04:29:57;;;;;;;17.95;9.02;;;;;;;-3.47;100.00;101735.38;6053935;29;20041;-89
2021/12/21 04:32:58;;;;;;;18.80;10.00;;;;;;;-3.43;100.00;101741.25;6040276;29;20704;-89
2021/12/21 04:36:02;;;;;;;14.63;8.60;;;;;;;-3.39;100.00;101740.41;6033606;29;20515;-89
2021/12/21 04:39:15;;;;;;;14.18;9.27;;;;;;;-3.40;100.00;101743.81;6030541;29;20050;-89
2021/12/21 04:42:18;;;;;;;17.67;9.82;;;;;;;-3.38;100.00;101744.66;6059378;29;20063;-89
2021/12/21 04:45:19;;;;;;;18.70;11.45;;;;;;;-3.37;100.00;101737.88;6063351;29;20044;-89
2021/12/21 04:48:21;;;;;;;17.10;9.90;;;;;;;-3.35;100.00;101739.56;6071021;29;20060;-89
2021/12/21 04:51:23;;;;;;;17.30;10.35;;;;;;;-3.32;100.00;101736.19;6056832;29;20056;-89
2021/12/21 04:54:39;;;;;;;14.75;9.25;;;;;;;-3.34;100.00;101737.88;6044865;29;20049;-89
2021/12/21 04:57:41;;;;;;;18.58;9.77;;;;;;;-3.31;100.00;101737.84;6048521;29;20052;-89
2021/12/21 05:00:43;;;;;;;15.27;9.63;;;;;;;-3.30;100.00;101735.34;6067128;29;20058;-89
2021/12/21 05:03:45;;;;;;;16.45;9.35;;;;;;;-3.37;100.00;101727.75;6035937;29;20048;-89
2021/12/21 05:06:47;;;;;;;15.48;9.27;;;;;;;-3.39;100.00;101732.81;6053048;29;20380;-89
2021/12/21 05:09:56;;;;;;;14.65;8.82;;;;;;;-3.36;100.00;101730.28;6037692;29;20076;-89
2021/12/21 05:12:58;;;;;;;15.82;9.65;;;;;;;-3.38;100.00;101733.66;6060172;29;20056;-89
2021/12/21 05:16:00;;;;;;;10.93;7.85;;;;;;;-3.40;100.00;101733.66;6075677;29;20052;-89
2021/12/21 05:19:02;;;;;;;13.25;7.68;;;;;;;-3.52;100.00;101741.28;6043153;29;20124;-89
2021/12/21 05:22:06;;;;;;;15.15;7.03;;;;;;;-3.66;100.00;101748.88;6066593;29;20055;-89
2021/12/21 05:25:08;;;;;;;15.27;7.47;;;;;;;-3.67;100.00;101742.13;6061636;29;20041;-89
2021/12/21 05:28:13;;;;;;;12.32;6.63;;;;;;;-3.65;100.00;101737.94;6063097;29;20055;-89
2021/12/21 05:31:21;;;;;;;12.70;7.10;;;;;;;-3.66;100.00;101737.91;6059923;29;20143;-89
2021/12/21 05:34:23;;;;;;;11.70;7.57;;;;;;;-3.69;100.00;101732.00;6059543;29;20053;-89
2021/12/21 05:37:25;;;;;;;11.82;6.80;;;;;;;-3.71;100.00;101736.22;6060363;29;20040;-89
2021/12/21 05:40:43;;;;;;;10.63;7.03;;;;;;;-3.79;100.00;101737.91;6066487;29;20052;-89
2021/12/21 05:43:45;;;;;;;11.70;6.97;;;;;;;-3.71;100.00;101735.38;6054532;29;20052;-88
2021/12/21 05:46:49;;;;;;;14.35;7.45;;;;;;;-3.73;100.00;101737.91;6076622;29;20045;-89
2021/12/21 05:49:51;;;;;;;11.18;6.78;;;;;;;-3.73;100.00;101749.72;6045892;29;20053;-89
2021/12/21 05:52:53;;;;;;;10.60;6.93;;;;;;;-3.82;100.00;101753.09;6017308;29;20109;-88
2021/12/21 05:55:55;;;;;;;9.60;6.43;;;;;;;-3.82;100.00;101748.03;6022731;29;20146;-89
2021/12/21 05:58:57;;;;;;;9.80;6.32;;;;;;;-3.85;100.00;101749.72;6052899;29;20056;-89
2021/12/21 06:02:00;;;;;;;17.00;7.40;;;;;;;-3.97;100.00;101748.03;6076385;29;20067;-89
2021/12/21 06:05:04;;;;;;;14.80;6.82;;;;;;;-3.94;100.00;101750.56;6038196;29;20052;-89
2021/12/21 06:08:06;;;;;;;12.70;7.15;;;;;;;-3.95;100.00;101752.25;6036197;29;20057;-89
2021/12/21 06:11:09;;;;;;;14.60;6.97;;;;;;;-3.90;100.00;101749.69;6028560;29;20053;-89
2021/12/21 06:14:21;;;;;;;11.13;7.30;;;;;;;-3.94;100.00;101755.63;6050364;29;20077;-89
2021/12/21 06:27:09;;;;;;;18.08;9.10;;;;;;;-3.85;100.00;101745.50;6075320;29;20395;-89
2021/12/21 06:30:12;;;;;;;17.20;8.60;;;;;;;-3.84;100.00;101752.25;6052383;29;20530;-89
2021/12/21 06:33:14;;;;;;;17.63;9.20;;;;;;;-3.83;100.00;101753.91;6025166;29;20048;-89
2021/12/21 06:36:17;;;;;;;11.25;7.70;;;;;;;-3.81;100.00;101746.34;6057991;29;20076;-89
2021/12/21 06:39:19;;;;;;;13.65;8.32;;;;;;;-3.77;100.00;101758.16;6038301;29;20116;-89
2021/12/21 06:42:22;;;;;;;15.93;8.23;;;;;;;-3.79;100.00;101750.56;6060030;29;20508;-89
2021/12/21 06:45:44;;;;;;;22.65;8.40;;;;;;;-3.75;100.00;101751.38;6052720;29;20053;-89
2021/12/21 06:52:10;;;;;;;15.55;9.23;;;;;;;-3.80;100.00;101743.84;6056211;29;20112;-89
2021/12/21 06:55:12;;;;;;;15.32;9.77;;;;;;;-3.84;100.00;101746.34;6059618;29;20053;-89
2021/12/21 06:58:14;;;;;;;14.15;8.90;;;;;;;-3.75;100.00;101747.19;6056990;29;20780;-89
2021/12/21 07:01:16;;;;;;;16.67;8.80;;;;;;;-3.71;100.00;101751.41;6026490;29;20060;-88
2021/12/21 07:04:19;;;;;;;12.40;8.38;;;;;;;-3.79;100.00;101749.72;6055741;29;20057;-89
2021/12/21 07:07:28;;;;;;;15.45;9.40;;;;;;;-3.84;100.00;101754.78;6048351;29;20044;-89
2021/12/21 07:10:32;;;;;;;12.85;8.23;;;;;;;-3.81;100.00;101754.78;6059725;29;20380;-89
2021/12/21 07:20:17;;;;;;;17.65;9.70;;;;;;;-3.82;100.00;101762.38;6059837;29;20060;-88
2021/12/21 07:23:19;;;;;;;12.70;8.95;;;;;;;-3.80;100.00;101763.19;6050432;29;20055;-89
2021/12/21 07:26:21;;;;;;;16.25;9.43;;;;;;;-3.84;100.00;101761.53;6045413;29;20633;-88
2021/12/21 07:29:23;;;;;;;15.00;8.98;;;;;;;-3.85;100.00;101762.34;6058304;29;20419;-88
2021/12/21 07:32:26;;;;;;;16.30;9.52;;;;;;;-3.81;100.00;101764.88;6060910;29;20506;-89
2021/12/21 07:35:28;;;;;;;12.95;8.27;;;;;;;-3.77;100.00;101763.22;6064002;29;20049;-89
2021/12/21 07:38:32;;;;;;;13.23;8.88;;;;;;;-3.73;100.00;101769.94;6026810;29;20052;-89
2021/12/21 07:41:34;;;;;;;19.23;9.27;;;;;;;-3.76;100.00;101770.78;6066319;29;20518;-88
2021/12/21 07:44:36;;;;;;;14.38;8.50;;;;;;;-3.66;100.00;101778.41;6067801;29;20049;-89
2021/12/21 07:47:38;;;;;;;14.18;9.25;;;;;;;-3.65;100.00;101773.34;6068652;29;20045;-89
2021/12/21 07:50:46;;;;;;;21.48;9.95;;;;;;;-3.69;100.00;101764.06;6051091;29;20639;-89
2021/12/21 07:53:48;;;;;;;19.40;11.98;;;;;;;-3.61;100.00;101776.69;6046065;29;20113;-89
2021/12/21 07:56:50;;;;;;;25.38;12.68;;;;;;;-3.60;100.00;101779.25;6065455;29;20061;-89
2021/12/21 07:59:53;;;;;;;23.15;12.32;;;;;;;-3.59;100.00;101775.84;6059358;29;20291;-89
2021/12/21 08:02:57;;;;;;;18.70;11.10;;;;;;;-3.59;100.00;101785.16;6061871;29;20118;-89
2021/12/21 08:06:04;;;;;;;19.95;11.38;;;;;;;-3.59;100.00;101785.97;6054070;29;20064;-89
2021/12/21 08:09:06;;;;;;;15.75;9.43;;;;;;;-3.55;100.00;101784.28;6041748;29;20518;-89
2021/12/21 08:12:16;;;;;;;17.55;10.70;;;;;;;-3.52;100.00;101786.84;6059898;29;20471;-89
2021/12/21 08:15:18;;;;;;;17.85;9.68;;;;;;;-3.48;100.00;101791.03;6051027;29;20053;-89
2021/12/21 08:18:21;;;;;;;25.02;11.10;;;;;;;-3.49;100.00;101782.59;6041238;29;20045;-88
2021/12/21 08:21:24;;;;;;;18.67;10.80;;;;;;;-3.50;100.00;101788.53;6060927;29;20511;-89
2021/12/21 08:24:26;;;;;;;19.38;10.68;;;;;;;-3.50;100.00;101790.22;6055056;29;20044;-89
2021/12/21 08:27:29;;;;;;;17.35;9.43;;;;;;;-3.42;100.00;101791.03;6053226;29;20045;-89
2021/12/21 08:30:31;;;;;;;17.88;10.25;;;;;;;-3.35;100.00;101791.88;6065818;29;20499;-89
2021/12/21 08:33:33;;;;;;;22.05;11.35;;;;;;;-3.26;100.00;101794.38;6053536;29;20049;-89
2021/12/21 08:36:35;;;;;;;16.70;10.50;;;;;;;-3.20;100.00;101793.56;6065821;29;20044;-89
2021/12/21 08:39:43;;;;;;;16.83;8.93;;;;;;;-3.19;100.00;101800.31;6037129;29;20041;-87
2021/12/21 08:42:48;;;;;;;14.60;9.32;;;;;;;-3.17;100.00;101791.00;6049626;29;20052;-87
2021/12/21 08:45:51;;;;;;;17.40;10.20;;;;;;;-3.08;100.00;101785.91;6049815;29;20551;-87
2021/12/21 08:48:53;;;;;;;21.20;10.25;;;;;;;-3.07;100.00;101787.63;6043640;29;20053;-87
2021/12/21 08:52:10;;;;;;;22.35;11.32;;;;;;;-3.06;100.00;101789.28;6047693;29;20100;-87
2021/12/21 08:55:17;;;;;;;30.55;12.13;;;;;;;-2.95;100.00;101797.72;6063659;29;20049;-87
2021/12/21 08:58:20;;;;;;;31.98;11.77;;;;;;;-2.88;100.00;101798.53;6062762;29;20060;-87
2021/12/21 09:01:22;;;;;;;45.22;12.52;;;;;;;-2.84;100.00;101800.22;6065932;29;20045;-87
2021/12/21 09:04:24;;;;;;;58.40;12.57;;;;;;;-2.80;100.00;101789.22;6042639;29;20057;-87
2021/12/21 09:07:26;;;;;;;34.60;12.18;;;;;;;-2.78;100.00;101787.53;6062435;29;20048;-87
2021/12/21 09:10:41;;;;;;;40.40;10.93;;;;;;;-2.75;100.00;101781.63;6048638;29;20402;-87
2021/12/21 09:13:44;;;;;;;43.20;11.88;;;;;;;-2.64;100.00;101778.19;6049785;29;20052;-87
2021/12/21 09:16:45;;;;;;;46.13;11.15;;;;;;;-2.61;100.00;101787.47;6041931;29;20041;-87
2021/12/21 09:19:48;;;;;;;77.80;13.45;;;;;;;-2.56;100.00;101789.97;6049487;29;20052;-87
2021/12/21 09:22:58;;;;;;;41.42;11.80;;;;;;;-2.55;100.00;101795.06;6038215;29;20059;-87
2021/12/21 09:26:00;;;;;;;71.07;14.20;;;;;;;-2.46;100.00;101792.50;6049764;29;20053;-87
2021/12/21 09:29:03;;;;;;;55.72;12.70;;;;;;;-2.48;100.00;101794.19;6049440;29;20048;-87
2021/12/21 09:32:06;;;;;;;36.15;13.27;;;;;;;-2.48;100.00;101798.41;6062425;29;20128;-87
2021/12/21 09:35:09;;;;;;;62.15;12.73;;;;;;;-2.38;100.00;101800.06;6045751;29;20110;-87
2021/12/21 09:38:11;;;;;;;42.80;12.70;;;;;;;-2.18;100.00;101802.47;6049545;29;20521;-87
2021/12/21 09:41:13;;;;;;;46.35;12.02;;;;;;;-2.13;100.00;101805.00;6044163;29;20571;-87
2021/12/21 09:44:18;;;;;;;71.07;13.13;;;;;;;-2.17;100.00;101802.47;6046274;29;20049;-87
2021/12/21 09:47:20;;;;;;;55.45;12.68;;;;;;;-2.14;100.00;101814.28;6062638;29;20061;-87
2021/12/21 09:50:25;;;;;;;37.67;12.32;;;;;;;-2.08;100.00;101804.13;6029103;29;20053;-87
2021/12/21 09:53:29;;;;;;;103.22;15.75;;;;;;;-2.06;100.00;101810.03;6064460;29;20036;-87
2021/12/21 09:56:31;;;;;;;85.47;15.77;;;;;;;-2.05;100.00;101801.56;6048079;29;20128;-87
2021/12/21 09:59:34;;;;;;;51.05;11.65;;;;;;;-1.99;100.00;101799.00;6041443;29;20048;-87
2021/12/21 10:02:36;;;;;;;94.97;14.50;;;;;;;-1.86;100.00;101801.41;6046280;29;20045;-86
2021/12/21 10:05:40;;;;;;;57.63;12.68;;;;;;;-1.79;100.00;101803.06;6048532;29;20085;-86
2021/12/21 10:08:43;;;;;;;94.55;14.93;;;;;;;-1.76;100.00;101801.38;6040053;29;20033;-86
2021/12/21 10:11:48;;;;;;;52.20;13.18;;;;;;;-1.80;100.00;101804.78;6051484;29;20049;-85
2021/12/21 10:15:20;;;;;;;48.25;12.07;;;;;;;-1.80;100.00;101799.69;6045702;29;20053;-86
2021/12/21 10:18:39;;;;;;;48.05;11.45;;;;;;;-1.65;100.00;101802.97;6033822;29;20049;-86
2021/12/21 10:21:47;;;;;;;48.75;12.00;;;;;;;-1.65;100.00;101796.19;6070326;29;20064;-86
2021/12/21 10:24:51;;;;;;;140.65;17.05;;;;;;;-1.68;100.00;101791.16;6060531;29;20041;-86
2021/12/21 10:27:53;;;;;;;91.03;15.23;;;;;;;-1.73;100.00;101792.88;6037628;29;20036;-86
2021/12/21 10:30:57;;;;;;;31.60;12.20;;;;;;;-1.66;100.00;101801.31;6052736;29;20056;-86
2021/12/21 10:34:01;;;;;;;146.70;18.50;;;;;;;-1.58;100.00;101805.44;6055502;29;20064;-86
2021/12/21 10:37:04;;;;;;;75.22;13.40;;;;;;;-1.56;100.00;101787.69;6051439;29;20657;-86
2021/12/21 10:40:21;;;;;;;58.80;16.17;;;;;;;-1.46;100.00;101791.00;6044970;29;20064;-86
2021/12/21 10:43:27;;;;;;;25.38;13.13;;;;;;;-1.33;100.00;101792.53;6045891;29;20566;-86
2021/12/21 10:46:32;;;;;;;28.60;12.98;;;;;;;-1.27;100.00;101791.63;6041154;29;20495;-86
2021/12/21 10:49:34;;;;;;;40.75;12.63;;;;;;;-1.19;100.00;101795.81;6039496;29;20045;-86
2021/12/21 10:52:36;;;;;;;81.43;15.10;;;;;;;-1.09;100.00;101792.31;6031934;29;20057;-86
2021/12/21 10:55:39;;;;;;;52.20;12.27;;;;;;;-1.14;100.00;101786.44;6050170;29;20677;-86
2021/12/21 10:58:43;;;;;;;33.70;12.25;;;;;;;-1.09;100.00;101783.84;6051992;29;20049;-86
2021/12/21 11:01:45;;;;;;;64.47;13.57;;;;;;;-0.96;100.00;101777.78;6053836;29;20045;-86
2021/12/21 11:04:53;;;;;;;164.30;18.75;;;;;;;-0.89;100.00;101769.22;6058771;29;21753;-86
2021/12/21 11:08:14;;;;;;;110.60;16.17;;;;;;;-1.05;100.00;101765.16;6062255;29;20044;-86
2021/12/21 11:11:32;;;;;;;;;;;;;;;-1.03;100.00;101773.63;6069855;29;20415;-86
2021/12/21 11:14:34;;;;;;;207.65;19.60;;;;;;;-1.04;100.00;101761.78;6036753;29;19928;-86
2021/12/21 11:17:37;;;;;;;114.85;14.98;;;;;;;-1.12;100.00;101766.94;6051153;29;20411;-86
2021/12/21 11:20:45;;;;;;;109.03;15.88;;;;;;;-1.05;100.00;101767.69;6044699;29;20076;-86
2021/12/21 11:24:04;;;;;;;127.82;16.17;;;;;;;-1.02;100.00;101759.19;6032768;29;20064;-86
2021/12/21 11:27:07;;;;;;;100.35;15.15;;;;;;;-1.06;100.00;101755.03;6021683;29;20456;-86
2021/12/21 11:30:18;;;;;;;90.60;14.38;;;;;;;-1.02;100.00;101761.75;6043298;29;20057;-86
2021/12/21 11:33:22;;;;;;;65.25;13.98;;;;;;;-1.03;100.00;101760.06;6043961;29;20061;-86
2021/12/21 11:39:46;;;;;;;153.73;16.88;;;;;;;-0.97;100.00;101762.53;6032146;29;20555;-86
2021/12/21 11:43:14;;;;;;;112.10;15.23;;;;;;;-0.94;100.00;101762.53;6052443;29;20056;-86
2021/12/21 11:46:25;;;;;;;105.25;16.13;;;;;;;-0.89;100.00;101761.59;6029087;29;20166;-86
2021/12/21 11:50:04;;;;;;;167.18;20.13;;;;;;;-0.90;100.00;101752.28;6042861;29;20047;-86
2021/12/21 11:53:08;;;;;;;140.23;18.80;;;;;;;-0.83;100.00;101752.22;6039339;29;20057;-85
2021/12/21 11:56:18;;;;;;;188.65;18.15;;;;;;;-0.86;100.00;101750.56;6064476;29;20629;-86
2021/12/21 11:59:23;;;;;;;126.82;17.75;;;;;;;-0.81;100.00;101743.72;6065175;29;20056;-86
2021/12/21 12:02:30;;;;;;;110.13;18.27;;;;;;;-0.85;100.00;101742.06;6018954;29;20490;-86
2021/12/21 12:05:34;;;;;;;108.68;17.08;;;;;;;-0.86;100.00;101750.56;6063296;29;20410;-86
2021/12/21 12:08:55;;;;;;;88.47;15.88;;;;;;;-0.87;100.00;101736.16;6051611;29;20061;-87
2021/12/21 12:12:16;;;;;;;;;;;;;;;-0.81;100.00;101730.19;6054312;29;20041;-85
2021/12/21 12:15:41;;;;;;;92.35;16.10;;;;;;;-0.80;100.00;101740.31;6050392;29;19927;-87
2021/12/21 12:18:45;;;;;;;112.35;17.17;;;;;;;-0.74;100.00;101725.00;6051126;29;20194;-86
2021/12/21 12:22:06;;;;;;;133.88;17.40;;;;;;;-0.71;100.00;101726.66;6054616;29;20112;-86
2021/12/21 12:25:18;;;;;;;113.88;15.90;;;;;;;-0.74;100.00;101729.25;6068099;29;20582;-86
2021/12/21 12:28:33;;;;;;;159.85;18.75;;;;;;;-0.78;100.00;101728.41;6062695;29;20059;-86
2021/12/21 12:31:38;;;;;;;160.68;18.90;;;;;;;-0.81;100.00;101732.72;6071954;29;20117;-86
2021/12/21 12:34:42;;;;;;;152.88;18.20;;;;;;;-0.82;100.00;101729.34;6027980;29;20403;-87
2021/12/21 12:37:51;;;;;;;119.55;18.05;;;;;;;-0.87;100.00;101719.22;6057802;29;20044;-88
2021/12/21 12:40:58;;;;;;;97.03;15.80;;;;;;;-0.85;100.00;101716.66;6056970;29;20052;-88
2021/12/21 12:44:00;;;;;;;112.07;18.75;;;;;;;-0.81;100.00;101720.00;6051321;29;20478;-88
2021/12/21 12:47:06;;;;;;;116.97;16.48;;;;;;;-0.78;100.00;101713.16;6033256;29;20052;-87
2021/12/21 12:50:21;;;;;;;113.97;16.25;;;;;;;-0.72;100.00;101718.19;6033927;29;20041;-88
2021/12/21 12:53:37;;;;;;;74.93;13.02;;;;;;;-0.65;100.00;101713.84;6057883;29;20045;-88
2021/12/21 12:56:40;;;;;;;78.72;13.32;;;;;;;-0.62;100.00;101707.88;6046505;29;20143;-88
2021/12/21 12:59:57;;;;;;;106.80;15.07;;;;;;;-0.61;100.00;101701.94;6049669;29;20144;-88
2021/12/21 13:03:08;;;;;;;69.63;13.23;;;;;;;-0.71;100.00;101708.84;6059883;29;20049;-88
2021/12/21 13:06:11;;;;;;;102.93;13.52;;;;;;;-0.69;100.00;101707.16;6050772;29;20057;-88
2021/12/21 13:09:18;;;;;;;80.88;11.43;;;;;;;-0.72;100.00;101707.16;6061119;29;20045;-87
2021/12/21 13:12:20;;;;;;;106.35;12.90;;;;;;;-0.80;100.00;101702.19;6041017;29;20144;-87
2021/12/21 13:15:35;;;;;;;107.20;13.48;;;;;;;-0.96;100.00;101704.09;6047632;29;20057;-87
2021/12/21 13:18:43;;;;;;;108.80;13.88;;;;;;;-1.09;100.00;101703.38;6030984;29;20045;-88
2021/12/21 13:21:53;;;;;;;146.20;13.75;;;;;;;-1.15;100.00;101702.59;6036106;29;20044;-88
2021/12/21 13:24:56;;;;;;;142.63;14.52;;;;;;;-1.17;100.00;101705.19;6030028;29;20900;-88
2021/12/21 13:28:08;;;;;;;109.68;13.75;;;;;;;-1.17;100.00;101699.25;6040119;29;20077;-88
2021/12/21 13:31:11;;;;;;;120.18;13.73;;;;;;;-1.18;100.00;101707.72;6039615;29;20053;-88
2021/12/21 13:34:15;;;;;;;122.97;13.45;;;;;;;-1.25;100.00;101703.56;6029727;29;20392;-88
2021/12/21 13:37:22;;;;;;;102.20;15.52;;;;;;;-1.22;100.00;101701.00;6074334;29;20049;-88
2021/12/21 13:40:26;;;;;;;125.35;13.50;;;;;;;-1.21;100.00;101702.69;6049815;29;20053;-88
2021/12/21 13:43:29;;;;;;;115.68;14.80;;;;;;;-1.28;100.00;101707.00;6056403;29;20053;-88
2021/12/21 13:46:34;;;;;;;144.32;14.40;;;;;;;-1.34;100.00;101707.91;6072443;29;20570;-88
2021/12/21 13:49:36;;;;;;;80.70;12.70;;;;;;;-1.37;100.00;101719.78;6053024;29;20041;-88
2021/12/21 13:52:55;;;;;;;83.20;12.43;;;;;;;-1.34;100.00;101712.97;6055716;29;20060;-88
2021/12/21 13:55:57;;;;;;;117.97;12.93;;;;;;;-1.39;100.00;101703.72;6024270;29;20056;-88
2021/12/21 13:59:00;;;;;;;83.05;12.73;;;;;;;-1.37;100.00;101700.28;6049184;29;20130;-88
2021/12/21 14:02:07;;;;;;;88.60;12.45;;;;;;;-1.48;100.00;101706.38;6058106;29;20049;-88
2021/12/21 14:05:31;;;;;;;84.80;12.15;;;;;;;-1.61;100.00;101703.94;6059866;29;20049;-88
2021/12/21 14:08:34;;;;;;;66.80;11.68;;;;;;;-1.67;100.00;101716.66;6043678;29;20237;-87
2021/12/21 14:11:41;;;;;;;51.92;11.60;;;;;;;-1.69;100.00;101713.34;6054318;29;20044;-87
2021/12/21 14:14:42;;;;;;;82.28;15.35;;;;;;;-1.74;100.00;101720.13;6054772;29;20055;-87
2021/12/21 14:17:44;;;;;;;77.90;14.23;;;;;;;-1.76;100.00;101724.38;6049192;29;20394;-88
2021/12/21 14:21:24;;;;;;;78.82;14.05;;;;;;;-1.83;100.00;101726.13;6042043;29;20060;-88
2021/12/21 14:24:28;;;;;;;53.20;12.55;;;;;;;-1.79;100.00;101721.84;6051831;29;20037;-88
2021/12/21 14:27:30;;;;;;;62.55;13.48;;;;;;;-1.80;100.00;101721.00;6053264;29;20080;-88
2021/12/21 14:30:32;;;;;;;84.97;16.13;;;;;;;-1.82;100.00;101720.19;6052268;29;20049;-87
2021/12/21 14:33:49;;;;;;;51.95;13.70;;;;;;;-1.91;100.00;101727.91;6022936;29;20494;-88
2021/12/21 14:36:52;;;;;;;49.72;13.52;;;;;;;-1.92;100.00;101732.97;6061588;29;20075;-88
2021/12/21 14:39:57;;;;;;;72.78;15.93;;;;;;;-1.94;100.00;101732.97;6052843;29;20111;-88
2021/12/21 14:42:59;;;;;;;79.60;14.70;;;;;;;-1.91;100.00;101734.63;6052793;29;20037;-88
2021/12/21 14:46:02;;;;;;;60.17;13.75;;;;;;;-2.00;100.00;101731.31;6066156;29;20127;-87
2021/12/21 14:49:06;;;;;;;52.13;12.93;;;;;;;-1.99;100.00;101734.69;6028095;29;20040;-88
2021/12/21 14:52:25;;;;;;;28.58;11.50;;;;;;;-2.00;100.00;101726.25;6024714;29;20662;-88
2021/12/21 14:55:29;;;;;;;57.17;12.40;;;;;;;-2.08;100.00;101738.16;6061730;29;20099;-88
2021/12/21 14:58:31;;;;;;;48.72;11.05;;;;;;;-2.11;100.00;101733.13;6026524;29;20044;-88